MGH874 EPKT-LTAI
Flight info
| Callsign | MGH874 |
|---|---|
| Flight time | N/A |
| Altitude | 39000 |
| Route | REGTO DCT RAZEC DCT KEKED DCT UPAMA DCT ADORU UG80 EKI UL606 CRD UL854 KOZLU |
| Aircraft | B77W/H-SDE1E2E3FGHIJ2J3J4J5M1RWXY/LB1D1 |
Departure
| Time | 2026-04-29 11:49 |
|---|---|
| Airport | Katowice Wojciech Korfanty International Airport (EPKT) |
Arrival
| Time | N/A |
|---|---|
| Airport | Antalya International Airport (LTAI) |
| Time | Latitude | Longitude | Altitude | Speed | Heading |
|---|---|---|---|---|---|
| 2026-04-29 05:58 | 50.47197 | 19.07149 | 1003 ft | 0 kts | 180° |
| 2026-04-29 06:21 | 50.47196 | 19.07149 | 1003 ft | 0 kts | 180° |
| 2026-04-29 06:26 | 50.47195 | 19.07149 | 1003 ft | 0 kts | 180° |
| 2026-04-29 06:30 | 50.47194 | 19.07149 | 1003 ft | 0 kts | 180° |
| 2026-04-29 06:35 | 50.47193 | 19.07149 | 1003 ft | 0 kts | 180° |
| 2026-04-29 06:39 | 50.47192 | 19.07149 | 1003 ft | 0 kts | 180° |
| 2026-04-29 06:44 | 50.47191 | 19.07149 | 1003 ft | 0 kts | 180° |
| 2026-04-29 06:49 | 50.47190 | 19.07149 | 1003 ft | 0 kts | 180° |
| 2026-04-29 06:54 | 50.47189 | 19.07149 | 1003 ft | 0 kts | 180° |
| 2026-04-29 06:58 | 50.47188 | 19.07149 | 1003 ft | 0 kts | 180° |
| 2026-04-29 07:03 | 50.47187 | 19.07149 | 1003 ft | 0 kts | 180° |
| 2026-04-29 07:08 | 50.47186 | 19.07149 | 1003 ft | 0 kts | 180° |
| 2026-04-29 07:13 | 50.47185 | 19.07149 | 976 ft | 0 kts | 180° |
| 2026-04-29 07:18 | 50.47184 | 19.07149 | 1003 ft | 0 kts | 180° |
| 2026-04-29 07:22 | 50.47183 | 19.07149 | 1003 ft | 0 kts | 180° |
| 2026-04-29 07:27 | 50.47182 | 19.07149 | 1003 ft | 0 kts | 180° |
| 2026-04-29 07:32 | 50.47181 | 19.07149 | 1003 ft | 0 kts | 180° |
| 2026-04-29 07:37 | 50.47180 | 19.07149 | 1003 ft | 0 kts | 180° |
| 2026-04-29 07:42 | 50.47179 | 19.07149 | 1003 ft | 0 kts | 180° |
| 2026-04-29 07:46 | 50.47178 | 19.07149 | 1003 ft | 0 kts | 180° |
| 2026-04-29 07:51 | 50.47177 | 19.07149 | 1003 ft | 0 kts | 180° |
| 2026-04-29 07:56 | 50.47176 | 19.07149 | 1003 ft | 0 kts | 180° |
| 2026-04-29 08:01 | 50.47175 | 19.07149 | 1003 ft | 0 kts | 180° |
| 2026-04-29 08:06 | 50.47174 | 19.07149 | 1003 ft | 0 kts | 180° |
| 2026-04-29 08:11 | 50.47173 | 19.07149 | 1007 ft | 0 kts | 180° |
| 2026-04-29 08:16 | 50.47172 | 19.07149 | 1003 ft | 0 kts | 180° |
| 2026-04-29 08:21 | 50.47171 | 19.07149 | 1003 ft | 0 kts | 180° |
| 2026-04-29 08:26 | 50.47170 | 19.07149 | 1003 ft | 0 kts | 180° |
| 2026-04-29 08:31 | 50.47169 | 19.07149 | 1003 ft | 0 kts | 180° |
| 2026-04-29 08:36 | 50.47168 | 19.07149 | 1003 ft | 0 kts | 180° |
| 2026-04-29 08:41 | 50.47167 | 19.07149 | 1003 ft | 0 kts | 180° |
| 2026-04-29 08:46 | 50.47166 | 19.07149 | 1003 ft | 0 kts | 180° |
| 2026-04-29 08:51 | 50.47165 | 19.07149 | 1003 ft | 0 kts | 180° |
| 2026-04-29 08:56 | 50.47164 | 19.07149 | 1003 ft | 0 kts | 180° |
| 2026-04-29 09:01 | 50.47163 | 19.07149 | 1003 ft | 0 kts | 180° |
| 2026-04-29 09:06 | 50.47162 | 19.07149 | 1003 ft | 0 kts | 180° |
| 2026-04-29 09:10 | 50.47161 | 19.07149 | 1003 ft | 0 kts | 180° |
| 2026-04-29 09:16 | 50.47160 | 19.07149 | 1003 ft | 0 kts | 180° |
| 2026-04-29 09:21 | 50.47159 | 19.07149 | 1003 ft | 0 kts | 180° |
| 2026-04-29 09:26 | 50.47158 | 19.07149 | 1008 ft | 0 kts | 180° |
| 2026-04-29 09:31 | 50.47157 | 19.07149 | 1008 ft | 0 kts | 180° |
| 2026-04-29 09:36 | 50.47156 | 19.07149 | 1008 ft | 0 kts | 180° |
| 2026-04-29 09:41 | 50.47155 | 19.07149 | 1008 ft | 0 kts | 180° |
| 2026-04-29 09:46 | 50.47154 | 19.07149 | 1003 ft | 0 kts | 180° |
| 2026-04-29 09:52 | 50.47153 | 19.07149 | 1003 ft | 0 kts | 180° |
| 2026-04-29 09:57 | 50.47152 | 19.07149 | 1003 ft | 0 kts | 180° |
| 2026-04-29 10:02 | 50.47151 | 19.07149 | 1003 ft | 0 kts | 180° |
| 2026-04-29 10:07 | 50.47150 | 19.07149 | 1003 ft | 0 kts | 180° |
| 2026-04-29 10:13 | 50.47149 | 19.07149 | 1003 ft | 0 kts | 180° |
| 2026-04-29 10:18 | 50.47148 | 19.07149 | 1003 ft | 0 kts | 180° |
| 2026-04-29 10:23 | 50.47147 | 19.07149 | 1003 ft | 0 kts | 180° |
| 2026-04-29 10:28 | 50.47146 | 19.07149 | 1003 ft | 0 kts | 180° |
| 2026-04-29 10:33 | 50.47145 | 19.07149 | 1003 ft | 0 kts | 180° |
| 2026-04-29 11:31 | 50.47198 | 19.07149 | 1003 ft | 0 kts | 180° |
| 2026-04-29 11:42 | 50.47199 | 19.07149 | 1003 ft | 0 kts | 180° |
| 2026-04-29 11:42 | 50.47204 | 19.07149 | 1003 ft | 2 kts | 180° |
| 2026-04-29 11:43 | 50.47215 | 19.07149 | 1003 ft | 2 kts | 180° |
| 2026-04-29 11:43 | 50.47226 | 19.07149 | 1005 ft | 2 kts | 185° |
| 2026-04-29 11:43 | 50.47238 | 19.07154 | 1003 ft | 2 kts | 265° |
| 2026-04-29 11:43 | 50.47237 | 19.07171 | 1003 ft | 0 kts | 270° |
| 2026-04-29 11:45 | 50.47237 | 19.07153 | 1003 ft | 4 kts | 268° |
| 2026-04-29 11:45 | 50.47236 | 19.07077 | 1005 ft | 12 kts | 270° |
| 2026-04-29 11:45 | 50.47235 | 19.06907 | 1007 ft | 17 kts | 270° |
| 2026-04-29 11:46 | 50.47237 | 19.06714 | 1003 ft | 15 kts | 274° |
| 2026-04-29 11:46 | 50.47306 | 19.06629 | 1005 ft | 15 kts | 354° |
| 2026-04-29 11:46 | 50.47409 | 19.06591 | 1006 ft | 16 kts | 311° |
| 2026-04-29 11:46 | 50.47427 | 19.06400 | 1001 ft | 21 kts | 270° |
| 2026-04-29 11:47 | 50.47428 | 19.06148 | 998 ft | 25 kts | 270° |
| 2026-04-29 11:47 | 50.47469 | 19.05985 | 999 ft | 6 kts | 339° |
| 2026-04-29 11:47 | 50.47484 | 19.05982 | 999 ft | 2 kts | 353° |
| 2026-04-29 11:47 | 50.47509 | 19.05981 | 1000 ft | 6 kts | 358° |
| 2026-04-29 11:48 | 50.47583 | 19.05981 | 1002 ft | 8 kts | 17° |
| 2026-04-29 11:48 | 50.47601 | 19.06047 | 1002 ft | 11 kts | 81° |
| 2026-04-29 11:48 | 50.47603 | 19.06126 | 1000 ft | 14 kts | 89° |
| 2026-04-29 11:48 | 50.47605 | 19.06686 | 1003 ft | 100 kts | 89° |
| 2026-04-29 11:49 | 50.47595 | 19.08281 | 1021 ft | 188 kts | 85° |
| 2026-04-29 11:49 | 50.47564 | 19.10486 | 1742 ft | 211 kts | 89° |
| 2026-04-29 11:49 | 50.47537 | 19.12931 | 2487 ft | 244 kts | 86° |
| 2026-04-29 11:49 | 50.47534 | 19.15628 | 3548 ft | 252 kts | 85° |
| 2026-04-29 11:50 | 50.47547 | 19.18375 | 4771 ft | 251 kts | 87° |
| 2026-04-29 11:50 | 50.47548 | 19.21116 | 5952 ft | 254 kts | 87° |
| 2026-04-29 11:50 | 50.47545 | 19.23929 | 7005 ft | 260 kts | 87° |
| 2026-04-29 11:50 | 50.47538 | 19.26802 | 7976 ft | 267 kts | 86° |
| 2026-04-29 11:51 | 50.47529 | 19.29754 | 8923 ft | 275 kts | 86° |
| 2026-04-29 11:51 | 50.47519 | 19.32800 | 9901 ft | 282 kts | 86° |
| 2026-04-29 11:51 | 50.47506 | 19.35900 | 10824 ft | 289 kts | 86° |
| 2026-04-29 11:51 | 50.47494 | 19.39178 | 11304 ft | 315 kts | 87° |
| 2026-04-29 11:52 | 50.47481 | 19.42792 | 11564 ft | 347 kts | 87° |
| 2026-04-29 11:52 | 50.47460 | 19.46693 | 12258 ft | 363 kts | 88° |
| 2026-04-29 11:52 | 50.47433 | 19.50715 | 13260 ft | 373 kts | 87° |
| 2026-04-29 11:52 | 50.47405 | 19.54873 | 14369 ft | 380 kts | 87° |
| 2026-04-29 11:53 | 50.47377 | 19.59076 | 15297 ft | 389 kts | 86° |
| 2026-04-29 11:53 | 50.47349 | 19.63391 | 16164 ft | 400 kts | 86° |
| 2026-04-29 11:53 | 50.47320 | 19.67689 | 17010 ft | 410 kts | 85° |
| 2026-04-29 11:53 | 50.47290 | 19.72324 | 17895 ft | 420 kts | 85° |
| 2026-04-29 11:54 | 50.47258 | 19.76971 | 18775 ft | 429 kts | 85° |
| 2026-04-29 11:54 | 50.47223 | 19.81696 | 19545 ft | 437 kts | 85° |
| 2026-04-29 11:54 | 50.46900 | 19.86481 | 20194 ft | 452 kts | 102° |
| 2026-04-29 11:54 | 50.45546 | 19.91019 | 20876 ft | 468 kts | 123° |
| 2026-04-29 11:55 | 50.43327 | 19.94762 | 21707 ft | 472 kts | 144° |
| 2026-04-29 11:55 | 50.40627 | 19.97679 | 22420 ft | 475 kts | 149° |
| 2026-04-29 11:55 | 50.37836 | 20.00555 | 23098 ft | 484 kts | 149° |
| 2026-04-29 11:55 | 50.35017 | 20.03469 | 23891 ft | 490 kts | 149° |
| 2026-04-29 11:56 | 50.32161 | 20.06461 | 24589 ft | 495 kts | 149° |
| 2026-04-29 11:56 | 50.29303 | 20.09494 | 25310 ft | 498 kts | 149° |
| 2026-04-29 11:56 | 50.26435 | 20.12561 | 25968 ft | 502 kts | 148° |
| 2026-04-29 11:56 | 50.23537 | 20.15666 | 26655 ft | 506 kts | 149° |
| 2026-04-29 11:57 | 50.20622 | 20.18787 | 27246 ft | 511 kts | 149° |
| 2026-04-29 11:57 | 50.18637 | 20.20905 | 27640 ft | 515 kts | 149° |
| 2026-04-29 11:57 | 50.15654 | 20.24079 | 28221 ft | 520 kts | 149° |
| 2026-04-29 11:57 | 50.12550 | 20.26944 | 28770 ft | 519 kts | 160° |
| 2026-04-29 11:58 | 50.09218 | 20.28885 | 29338 ft | 517 kts | 167° |
| 2026-04-29 11:58 | 50.05727 | 20.30577 | 29878 ft | 521 kts | 168° |
| 2026-04-29 11:58 | 50.02267 | 20.32307 | 30363 ft | 526 kts | 166° |
| 2026-04-29 11:58 | 49.98788 | 20.34191 | 30697 ft | 531 kts | 165° |
| 2026-04-29 11:59 | 49.95305 | 20.36156 | 31084 ft | 535 kts | 165° |
| 2026-04-29 11:59 | 49.91803 | 20.38134 | 31541 ft | 535 kts | 164° |
| 2026-04-29 11:59 | 49.88299 | 20.40097 | 32120 ft | 533 kts | 164° |
| 2026-04-29 11:59 | 49.84814 | 20.42037 | 32718 ft | 531 kts | 164° |
| 2026-04-29 12:00 | 49.81329 | 20.43969 | 33264 ft | 530 kts | 163° |
| 2026-04-29 12:00 | 49.77854 | 20.45891 | 33761 ft | 530 kts | 163° |
| 2026-04-29 12:00 | 49.74384 | 20.47807 | 34245 ft | 530 kts | 163° |
| 2026-04-29 12:00 | 49.70914 | 20.49722 | 34604 ft | 530 kts | 163° |
| 2026-04-29 12:01 | 49.67450 | 20.51631 | 35023 ft | 529 kts | 163° |
| 2026-04-29 12:01 | 49.63986 | 20.53540 | 35513 ft | 526 kts | 163° |
| 2026-04-29 12:01 | 49.60550 | 20.55432 | 36022 ft | 523 kts | 163° |
| 2026-04-29 12:01 | 49.57127 | 20.57311 | 36485 ft | 521 kts | 163° |
| 2026-04-29 12:02 | 49.53715 | 20.59186 | 36910 ft | 520 kts | 163° |
| 2026-04-29 12:02 | 49.50316 | 20.61057 | 37374 ft | 518 kts | 163° |
| 2026-04-29 12:02 | 49.46975 | 20.62895 | 37776 ft | 516 kts | 163° |
| 2026-04-29 12:02 | 49.43590 | 20.64753 | 38122 ft | 516 kts | 163° |
| 2026-04-29 12:03 | 49.40298 | 20.66952 | 38442 ft | 520 kts | 151° |
| 2026-04-29 12:03 | 49.37385 | 20.70397 | 38749 ft | 521 kts | 136° |
| 2026-04-29 12:03 | 49.34861 | 20.74281 | 39036 ft | 521 kts | 135° |
| 2026-04-29 12:03 | 49.32339 | 20.78272 | 39190 ft | 524 kts | 135° |
| 2026-04-29 12:04 | 49.27145 | 20.86289 | 39252 ft | 526 kts | 136° |
| 2026-04-29 12:04 | 49.21958 | 20.93988 | 39241 ft | 520 kts | 137° |
| 2026-04-29 12:05 | 49.16929 | 21.01428 | 39247 ft | 517 kts | 137° |
| 2026-04-29 12:05 | 49.11218 | 21.07949 | 39252 ft | 511 kts | 155° |
| 2026-04-29 12:06 | 49.04619 | 21.11699 | 39248 ft | 504 kts | 171° |
| 2026-04-29 12:06 | 48.97781 | 21.13901 | 39260 ft | 507 kts | 172° |
| 2026-04-29 12:07 | 48.90847 | 21.16126 | 39249 ft | 511 kts | 171° |
| 2026-04-29 12:07 | 48.83867 | 21.18465 | 39241 ft | 516 kts | 171° |
| 2026-04-29 12:08 | 48.76837 | 21.20853 | 39241 ft | 519 kts | 171° |
| 2026-04-29 12:08 | 48.69770 | 21.23243 | 39243 ft | 521 kts | 171° |
| 2026-04-29 12:09 | 48.62682 | 21.25626 | 39229 ft | 521 kts | 171° |
| 2026-04-29 12:09 | 48.55642 | 21.28160 | 39243 ft | 522 kts | 165° |
| 2026-04-29 12:10 | 48.48957 | 21.32267 | 39233 ft | 523 kts | 155° |
| 2026-04-29 12:10 | 48.42670 | 21.37895 | 39232 ft | 522 kts | 149° |
| 2026-04-29 12:11 | 48.36525 | 21.43732 | 39212 ft | 520 kts | 150° |
| 2026-04-29 12:11 | 48.30401 | 21.49493 | 39215 ft | 519 kts | 150° |
| 2026-04-29 12:12 | 48.24259 | 21.55196 | 39219 ft | 518 kts | 150° |
| 2026-04-29 12:12 | 48.18121 | 21.60857 | 39234 ft | 519 kts | 150° |
| 2026-04-29 12:13 | 48.11953 | 21.66530 | 39236 ft | 520 kts | 150° |
| 2026-04-29 12:13 | 48.05778 | 21.72197 | 39243 ft | 521 kts | 150° |
| 2026-04-29 12:14 | 47.99622 | 21.77832 | 39238 ft | 523 kts | 150° |
| 2026-04-29 12:14 | 47.93408 | 21.83505 | 39249 ft | 524 kts | 151° |
| 2026-04-29 12:15 | 47.87191 | 21.89164 | 39223 ft | 524 kts | 151° |
| 2026-04-29 12:15 | 47.80961 | 21.94819 | 39183 ft | 524 kts | 151° |
| 2026-04-29 12:16 | 47.74986 | 22.00228 | 39200 ft | 523 kts | 151° |
| 2026-04-29 12:16 | 47.68771 | 22.05838 | 39190 ft | 522 kts | 151° |
| 2026-04-29 12:17 | 47.62559 | 22.11430 | 39186 ft | 521 kts | 151° |
| 2026-04-29 12:17 | 47.56363 | 22.16991 | 39156 ft | 520 kts | 151° |
| 2026-04-29 12:18 | 47.50179 | 22.22526 | 39175 ft | 519 kts | 152° |
| 2026-04-29 12:18 | 47.43998 | 22.28043 | 39176 ft | 519 kts | 152° |
| 2026-04-29 12:19 | 47.37821 | 22.33540 | 39172 ft | 519 kts | 152° |
| 2026-04-29 12:19 | 47.31635 | 22.39030 | 39170 ft | 519 kts | 152° |
| 2026-04-29 12:20 | 47.25449 | 22.44506 | 39156 ft | 519 kts | 152° |
| 2026-04-29 12:20 | 47.19314 | 22.49922 | 39168 ft | 519 kts | 152° |
| 2026-04-29 12:21 | 47.13067 | 22.55421 | 39157 ft | 519 kts | 152° |
| 2026-04-29 12:21 | 47.06865 | 22.60866 | 39152 ft | 519 kts | 152° |
| 2026-04-29 12:22 | 47.00660 | 22.66299 | 39139 ft | 519 kts | 152° |
| 2026-04-29 12:22 | 46.94492 | 22.71684 | 39140 ft | 519 kts | 153° |
| 2026-04-29 12:23 | 46.88295 | 22.77079 | 39139 ft | 520 kts | 153° |
| 2026-04-29 12:23 | 46.82072 | 22.82482 | 39126 ft | 520 kts | 153° |
| 2026-04-29 12:24 | 46.75847 | 22.87873 | 39122 ft | 520 kts | 153° |
| 2026-04-29 12:24 | 46.69627 | 22.93246 | 39128 ft | 520 kts | 153° |
| 2026-04-29 12:25 | 46.63405 | 22.98606 | 39109 ft | 520 kts | 153° |
| 2026-04-29 12:26 | 46.54239 | 23.06474 | 39110 ft | 520 kts | 153° |
| 2026-04-29 12:26 | 46.47973 | 23.11835 | 39101 ft | 521 kts | 153° |
| 2026-04-29 12:27 | 46.41727 | 23.17165 | 39100 ft | 520 kts | 153° |
| 2026-04-29 12:27 | 46.35492 | 23.22472 | 39101 ft | 519 kts | 153° |
| 2026-04-29 12:28 | 46.29257 | 23.27763 | 39074 ft | 519 kts | 153° |
| 2026-04-29 12:28 | 46.23047 | 23.33020 | 39095 ft | 518 kts | 153° |
| 2026-04-29 12:29 | 46.16815 | 23.38281 | 39084 ft | 517 kts | 153° |
| 2026-04-29 12:29 | 46.10603 | 23.43512 | 39090 ft | 517 kts | 153° |
| 2026-04-29 12:30 | 46.04384 | 23.48734 | 39097 ft | 517 kts | 153° |
| 2026-04-29 12:30 | 45.98390 | 23.53754 | 39100 ft | 517 kts | 153° |
| 2026-04-29 12:31 | 45.93174 | 23.58112 | 39081 ft | 517 kts | 154° |
| 2026-04-29 12:31 | 45.86948 | 23.63302 | 39096 ft | 518 kts | 154° |
| 2026-04-29 12:32 | 45.80718 | 23.68482 | 39101 ft | 519 kts | 154° |
| 2026-04-29 12:32 | 45.74460 | 23.73672 | 39101 ft | 520 kts | 154° |
| 2026-04-29 12:33 | 45.68201 | 23.78849 | 39067 ft | 520 kts | 154° |
| 2026-04-29 12:33 | 45.61937 | 23.84017 | 39098 ft | 519 kts | 154° |
| 2026-04-29 12:34 | 45.55678 | 23.89167 | 39098 ft | 519 kts | 154° |
| 2026-04-29 12:34 | 45.49426 | 23.94298 | 39087 ft | 518 kts | 154° |
| 2026-04-29 12:35 | 45.43184 | 23.99408 | 39113 ft | 516 kts | 154° |
| 2026-04-29 12:35 | 45.37183 | 24.04307 | 39104 ft | 516 kts | 154° |
| 2026-04-29 12:36 | 45.30954 | 24.09380 | 39108 ft | 515 kts | 154° |
| 2026-04-29 12:36 | 45.24735 | 24.14433 | 39110 ft | 516 kts | 154° |
| 2026-04-29 12:37 | 45.18502 | 24.19483 | 39107 ft | 516 kts | 154° |
| 2026-04-29 12:37 | 45.12283 | 24.24508 | 39110 ft | 515 kts | 154° |
| 2026-04-29 12:38 | 45.06056 | 24.29528 | 39117 ft | 515 kts | 154° |
| 2026-04-29 12:38 | 44.99863 | 24.34507 | 39120 ft | 515 kts | 154° |
| 2026-04-29 12:39 | 44.93636 | 24.39502 | 39129 ft | 515 kts | 155° |
| 2026-04-29 12:39 | 44.87401 | 24.44491 | 39108 ft | 515 kts | 155° |
| 2026-04-29 12:40 | 44.81174 | 24.49461 | 39123 ft | 515 kts | 155° |
| 2026-04-29 12:40 | 44.74938 | 24.54426 | 39132 ft | 515 kts | 155° |
| 2026-04-29 12:41 | 44.68699 | 24.59380 | 39123 ft | 516 kts | 155° |
| 2026-04-29 12:41 | 44.62447 | 24.64332 | 39123 ft | 516 kts | 155° |
| 2026-04-29 12:42 | 44.56192 | 24.69275 | 39111 ft | 516 kts | 155° |
| 2026-04-29 12:42 | 44.49923 | 24.74215 | 39134 ft | 517 kts | 155° |
| 2026-04-29 12:43 | 44.43649 | 24.79148 | 39130 ft | 517 kts | 155° |
| 2026-04-29 12:43 | 44.37373 | 24.84071 | 39114 ft | 517 kts | 155° |
| 2026-04-29 12:44 | 44.31092 | 24.88984 | 39123 ft | 517 kts | 155° |
| 2026-04-29 12:44 | 44.24823 | 24.93877 | 39125 ft | 517 kts | 155° |
| 2026-04-29 12:45 | 44.18530 | 24.98776 | 39126 ft | 517 kts | 155° |
| 2026-04-29 12:45 | 44.12486 | 25.03470 | 39106 ft | 517 kts | 155° |
| 2026-04-29 12:46 | 44.06165 | 25.08368 | 39114 ft | 516 kts | 155° |
| 2026-04-29 12:46 | 43.99935 | 25.13182 | 39116 ft | 516 kts | 155° |
| 2026-04-29 12:47 | 43.93655 | 25.18024 | 39117 ft | 516 kts | 155° |
| 2026-04-29 12:47 | 43.87390 | 25.22843 | 39123 ft | 515 kts | 155° |
| 2026-04-29 12:48 | 43.81116 | 25.27656 | 39122 ft | 515 kts | 155° |
| 2026-04-29 12:48 | 43.74802 | 25.32490 | 39113 ft | 515 kts | 156° |
| 2026-04-29 12:49 | 43.68536 | 25.37276 | 39118 ft | 514 kts | 156° |
| 2026-04-29 12:49 | 43.62292 | 25.42032 | 39102 ft | 514 kts | 156° |
| 2026-04-29 12:50 | 43.55925 | 25.46504 | 39114 ft | 511 kts | 159° |
| 2026-04-29 12:50 | 43.49510 | 25.50718 | 39111 ft | 512 kts | 159° |
| 2026-04-29 12:51 | 43.43082 | 25.54960 | 39109 ft | 512 kts | 159° |
| 2026-04-29 12:51 | 43.36668 | 25.59246 | 39107 ft | 512 kts | 159° |
| 2026-04-29 12:52 | 43.30265 | 25.63539 | 39110 ft | 513 kts | 159° |
| 2026-04-29 12:52 | 43.23842 | 25.67835 | 39104 ft | 513 kts | 159° |
| 2026-04-29 12:53 | 43.17413 | 25.72121 | 39076 ft | 514 kts | 159° |
| 2026-04-29 12:53 | 43.11003 | 25.76383 | 39097 ft | 513 kts | 159° |
| 2026-04-29 12:54 | 43.04574 | 25.80647 | 39106 ft | 513 kts | 159° |
| 2026-04-29 12:54 | 42.98181 | 25.84878 | 39113 ft | 514 kts | 159° |
| 2026-04-29 12:55 | 42.91748 | 25.89124 | 39097 ft | 513 kts | 159° |
| 2026-04-29 12:55 | 42.85322 | 25.93357 | 39121 ft | 513 kts | 159° |
| 2026-04-29 12:56 | 42.78924 | 25.97565 | 39095 ft | 505 kts | 159° |
| 2026-04-29 12:56 | 42.72799 | 26.01581 | 39128 ft | 512 kts | 159° |
| 2026-04-29 12:57 | 42.66377 | 26.05780 | 39113 ft | 511 kts | 159° |
| 2026-04-29 12:57 | 42.59985 | 26.09953 | 39121 ft | 508 kts | 159° |
| 2026-04-29 12:58 | 42.53626 | 26.14095 | 39124 ft | 507 kts | 159° |
| 2026-04-29 12:58 | 42.47273 | 26.18222 | 39109 ft | 507 kts | 159° |
| 2026-04-29 12:59 | 42.40958 | 26.22314 | 39121 ft | 507 kts | 159° |
| 2026-04-29 12:59 | 42.34496 | 26.26493 | 39138 ft | 508 kts | 159° |
| 2026-04-29 13:00 | 42.28158 | 26.30583 | 39122 ft | 509 kts | 159° |
| 2026-04-29 13:00 | 42.21701 | 26.34740 | 39116 ft | 510 kts | 159° |
| 2026-04-29 13:01 | 42.15290 | 26.38860 | 39127 ft | 510 kts | 159° |
| 2026-04-29 13:01 | 42.08891 | 26.42961 | 39122 ft | 511 kts | 159° |
| 2026-04-29 13:02 | 42.02507 | 26.47045 | 39112 ft | 510 kts | 159° |
| 2026-04-29 13:02 | 41.96095 | 26.51138 | 39111 ft | 509 kts | 159° |
| 2026-04-29 13:03 | 41.89696 | 26.55215 | 39114 ft | 509 kts | 158° |
| 2026-04-29 13:03 | 41.83567 | 26.60051 | 39129 ft | 514 kts | 148° |
| 2026-04-29 13:04 | 41.77762 | 26.65637 | 39092 ft | 514 kts | 147° |
| 2026-04-29 13:04 | 41.72945 | 26.70270 | 39122 ft | 513 kts | 148° |
| 2026-04-29 13:05 | 41.67110 | 26.75796 | 39113 ft | 513 kts | 148° |
| 2026-04-29 13:05 | 41.61284 | 26.81269 | 39108 ft | 512 kts | 148° |
| 2026-04-29 13:06 | 41.55445 | 26.86744 | 39113 ft | 512 kts | 148° |
| 2026-04-29 13:06 | 41.49614 | 26.92207 | 39102 ft | 512 kts | 148° |
| 2026-04-29 13:07 | 41.43784 | 26.97653 | 39109 ft | 512 kts | 148° |
| 2026-04-29 13:07 | 41.38147 | 27.02897 | 39116 ft | 512 kts | 148° |
| 2026-04-29 13:08 | 41.32267 | 27.08357 | 39117 ft | 512 kts | 148° |
| 2026-04-29 13:08 | 41.26419 | 27.13778 | 39106 ft | 512 kts | 148° |
| 2026-04-29 13:09 | 41.20581 | 27.19179 | 39109 ft | 511 kts | 148° |
| 2026-04-29 13:09 | 41.14739 | 27.24565 | 39120 ft | 511 kts | 148° |
| 2026-04-29 13:10 | 41.08893 | 27.29946 | 39118 ft | 511 kts | 148° |
| 2026-04-29 13:10 | 41.03055 | 27.35309 | 39097 ft | 510 kts | 148° |
| 2026-04-29 13:11 | 40.97242 | 27.40639 | 39124 ft | 509 kts | 148° |
| 2026-04-29 13:11 | 40.91313 | 27.45596 | 39134 ft | 506 kts | 153° |
| 2026-04-29 13:12 | 40.85196 | 27.50193 | 39143 ft | 505 kts | 154° |
| 2026-04-29 13:12 | 40.79087 | 27.54762 | 39117 ft | 505 kts | 154° |
| 2026-04-29 13:13 | 40.72984 | 27.59363 | 39127 ft | 505 kts | 154° |
| 2026-04-29 13:13 | 40.66882 | 27.63966 | 39131 ft | 505 kts | 154° |
| 2026-04-29 13:14 | 40.60785 | 27.68559 | 39132 ft | 505 kts | 154° |
| 2026-04-29 13:14 | 40.54641 | 27.73176 | 39121 ft | 505 kts | 153° |
| 2026-04-29 13:15 | 40.48540 | 27.77751 | 39142 ft | 506 kts | 154° |
| 2026-04-29 13:15 | 40.42417 | 27.82332 | 39140 ft | 506 kts | 154° |
| 2026-04-29 13:16 | 40.36291 | 27.86906 | 39118 ft | 506 kts | 154° |
| 2026-04-29 13:16 | 40.30208 | 27.91438 | 39098 ft | 506 kts | 153° |
| 2026-04-29 13:17 | 40.24051 | 27.96017 | 39120 ft | 505 kts | 154° |
| 2026-04-29 13:17 | 40.18170 | 28.00380 | 39114 ft | 505 kts | 154° |
| 2026-04-29 13:18 | 40.12055 | 28.04909 | 39116 ft | 505 kts | 154° |
| 2026-04-29 13:18 | 40.05940 | 28.09427 | 39092 ft | 504 kts | 154° |
| 2026-04-29 13:19 | 39.99849 | 28.13920 | 39098 ft | 503 kts | 154° |
| 2026-04-29 13:19 | 39.93768 | 28.18396 | 39102 ft | 502 kts | 154° |
| 2026-04-29 13:20 | 39.87667 | 28.22857 | 39100 ft | 502 kts | 154° |
| 2026-04-29 13:20 | 39.81583 | 28.27285 | 39074 ft | 502 kts | 154° |
| 2026-04-29 13:21 | 39.75476 | 28.31723 | 39080 ft | 501 kts | 154° |
| 2026-04-29 13:21 | 39.69394 | 28.36137 | 39084 ft | 501 kts | 154° |
| 2026-04-29 13:22 | 39.63318 | 28.40539 | 39075 ft | 501 kts | 154° |
| 2026-04-29 13:22 | 39.57232 | 28.44940 | 39070 ft | 500 kts | 154° |
| 2026-04-29 13:23 | 39.51152 | 28.49326 | 39071 ft | 500 kts | 154° |
| 2026-04-29 13:23 | 39.45075 | 28.53702 | 39078 ft | 499 kts | 154° |
| 2026-04-29 13:24 | 39.39014 | 28.58056 | 39067 ft | 499 kts | 154° |
| 2026-04-29 13:24 | 39.33425 | 28.63443 | 39065 ft | 506 kts | 136° |
| 2026-04-29 13:25 | 39.29002 | 28.70551 | 39050 ft | 509 kts | 127° |
| 2026-04-29 13:25 | 39.22930 | 28.81815 | 39045 ft | 510 kts | 126° |
| 2026-04-29 13:26 | 39.18915 | 28.89366 | 39045 ft | 511 kts | 126° |
| 2026-04-29 13:26 | 39.14900 | 28.96930 | 39042 ft | 511 kts | 126° |
| 2026-04-29 13:27 | 39.11033 | 29.04221 | 39044 ft | 511 kts | 126° |
| 2026-04-29 13:27 | 39.07019 | 29.11793 | 39040 ft | 512 kts | 126° |
| 2026-04-29 13:28 | 39.02645 | 29.18980 | 39023 ft | 508 kts | 138° |